Time;durP1;ratioP1;P1;durP2;ratioP2;P2;SDS_P1;SDS_P2;PMS_P1;PMS_P2;Temp;Humidity;BMP_temperature;BMP_pressure;BME280_temperature;BME280_humidity;BME280_pressure;Samples;Min_cycle;Max_cycle;Signal;HPM_P1;HPM_P2
2021/10/17 00:02:08;;;;;;;34.85;18.35;;;;;;;18.04;54.85;99394.55;2149561;82;20934;-81
2021/10/17 00:05:09;;;;;;;30.02;15.93;;;;;;;18.75;53.51;99392.95;2149334;83;21021;-81
2021/10/17 00:08:09;;;;;;;32.28;16.70;;;;;;;19.28;51.61;99394.03;2149145;82;20961;-81
2021/10/17 00:11:10;;;;;;;22.70;12.85;;;;;;;19.40;49.91;99397.38;2147952;83;20974;-81
2021/10/17 00:14:10;;;;;;;22.50;13.10;;;;;;;17.94;46.69;99404.77;2147988;82;20967;-80
2021/10/17 00:17:11;;;;;;;24.15;13.98;;;;;;;15.61;47.97;99409.14;2147754;82;20911;-81
2021/10/17 00:20:11;;;;;;;66.20;42.85;;;;;;;13.75;50.23;99412.11;2148728;82;20903;-81
2021/10/17 00:23:12;;;;;;;44.33;26.73;;;;;;;14.53;56.71;99404.38;2148033;83;20973;-79
2021/10/17 00:26:13;;;;;;;25.45;15.75;;;;;;;16.14;52.37;99404.28;2147456;83;20958;-81
2021/10/17 00:29:13;;;;;;;30.27;13.43;;;;;;;14.70;50.51;99404.45;2147520;83;20895;-80
2021/10/17 00:32:14;;;;;;;24.10;12.53;;;;;;;13.14;52.08;99409.33;2149447;82;21484;-80
2021/10/17 00:35:14;;;;;;;23.73;12.35;;;;;;;11.96;54.01;99407.75;2059999;87;21321;-81
2021/10/17 00:38:15;;;;;;;23.67;12.75;;;;;;;11.11;55.85;99409.73;2152741;82;20934;-80
2021/10/17 00:41:15;;;;;;;27.35;12.90;;;;;;;10.44;57.49;99412.73;2152394;83;21002;-81
2021/10/17 00:44:16;;;;;;;22.25;13.65;;;;;;;9.94;58.86;99405.02;2152998;83;20958;-80
2021/10/17 00:47:17;;;;;;;27.17;13.53;;;;;;;9.57;60.05;99415.88;2153080;83;20982;-80
2021/10/17 00:50:17;;;;;;;31.67;14.07;;;;;;;9.25;61.14;99416.33;2153174;83;20954;-81
2021/10/17 00:53:18;;;;;;;22.70;13.17;;;;;;;9.05;62.10;99408.41;2152923;83;21025;-81
2021/10/17 00:56:18;;;;;;;26.20;13.60;;;;;;;8.89;63.04;99414.92;2153164;83;20907;-81
2021/10/17 00:59:19;;;;;;;29.57;13.57;;;;;;;8.73;63.73;99406.23;2153366;83;20970;-80
2021/10/17 01:02:20;;;;;;;29.13;12.60;;;;;;;8.60;64.25;99407.57;2152858;83;20931;-80
2021/10/17 01:05:20;;;;;;;26.40;12.53;;;;;;;8.49;64.94;99405.08;2153085;83;20953;-80
2021/10/17 01:08:21;;;;;;;19.40;12.13;;;;;;;8.39;65.51;99408.25;2153112;83;20954;-80
2021/10/17 01:11:22;;;;;;;21.33;12.23;;;;;;;8.25;65.95;99404.80;2153012;83;20922;-81
2021/10/17 01:14:22;;;;;;;24.50;12.60;;;;;;;8.20;66.42;99401.17;2060339;87;20950;-80
2021/10/17 01:17:23;;;;;;;29.20;12.77;;;;;;;8.16;66.78;99403.63;2153317;82;20961;-80
2021/10/17 01:20:23;;;;;;;28.93;13.70;;;;;;;8.08;67.18;99406.42;2153176;83;21147;-81
2021/10/17 01:23:24;;;;;;;30.47;13.80;;;;;;;7.94;67.41;99400.80;2152625;83;20986;-82
2021/10/17 01:26:25;;;;;;;24.70;14.07;;;;;;;7.92;67.82;99401.17;2152628;83;21321;-82
2021/10/17 01:29:25;;;;;;;36.00;14.43;;;;;;;7.90;68.15;99393.73;2152444;83;20970;-82
2021/10/17 01:32:26;;;;;;;28.00;14.30;;;;;;;7.93;67.97;99395.13;2151888;82;21012;-81
2021/10/17 01:35:26;;;;;;;28.50;14.10;;;;;;;7.96;68.17;99395.23;2152681;83;20950;-81
2021/10/17 01:38:27;;;;;;;27.33;14.17;;;;;;;7.95;68.43;99396.06;2152640;83;20926;-80
2021/10/17 01:41:27;;;;;;;28.17;14.87;;;;;;;7.92;68.39;99395.97;2152763;83;21005;-80
2021/10/17 01:44:28;;;;;;;29.93;15.90;;;;;;;7.89;68.66;99395.88;2152564;83;20932;-81
2021/10/17 01:47:29;;;;;;;33.73;16.30;;;;;;;7.90;68.58;99389.84;2152429;83;21009;-81
2021/10/17 01:50:29;;;;;;;33.80;15.83;;;;;;;7.88;68.72;99387.61;2152663;83;21317;-80
2021/10/17 01:53:30;;;;;;;31.13;15.20;;;;;;;7.86;68.95;99384.97;2152394;83;21349;-82
2021/10/17 01:56:30;;;;;;;32.53;15.57;;;;;;;7.86;69.09;99387.56;2152715;83;20951;-80
2021/10/17 01:59:31;;;;;;;36.47;16.37;;;;;;;7.84;69.01;99382.73;2152559;83;20930;-80
2021/10/17 02:02:31;;;;;;;39.80;16.10;;;;;;;7.89;69.06;99382.88;2152457;83;20933;-81
2021/10/17 02:05:32;;;;;;;30.57;16.07;;;;;;;7.92;69.14;99374.76;2152872;83;21310;-80
2021/10/17 02:08:33;;;;;;;36.40;16.73;;;;;;;7.95;69.16;99380.47;2152861;83;20973;-80
2021/10/17 02:11:33;;;;;;;27.97;15.57;;;;;;;7.94;69.11;99382.19;2152648;83;20978;-80
2021/10/17 02:14:35;;;;;;;33.40;15.97;;;;;;;7.93;69.30;99380.42;2152365;83;20926;-80
2021/10/17 02:17:36;;;;;;;32.10;15.93;;;;;;;7.93;69.20;99378.23;2059764;87;21135;-81
2021/10/17 02:20:36;;;;;;;35.23;16.80;;;;;;;7.96;69.20;99376.61;2152617;82;20910;-81
2021/10/17 02:23:37;;;;;;;34.10;15.57;;;;;;;8.00;69.27;99376.29;2152344;83;21037;-81
2021/10/17 02:26:38;;;;;;;33.60;16.83;;;;;;;8.01;69.08;99381.95;2152424;83;20970;-80
2021/10/17 02:29:38;;;;;;;31.83;15.23;;;;;;;8.02;69.31;99380.23;2059927;87;20982;-81
2021/10/17 02:32:39;;;;;;;30.63;15.67;;;;;;;8.02;69.38;99375.03;2164066;82;21036;-81
2021/10/17 02:35:40;;;;;;;33.27;16.47;;;;;;;8.04;69.55;99374.24;2182344;82;20945;-81
2021/10/17 02:38:40;;;;;;;32.37;14.50;;;;;;;8.03;69.70;99376.37;2182624;82;20952;-80
2021/10/17 02:41:41;;;;;;;27.27;14.47;;;;;;;8.02;69.90;99369.83;2182702;82;20921;-80
2021/10/17 02:44:42;;;;;;;28.60;14.97;;;;;;;7.98;70.10;99366.27;2182831;82;21308;-80
2021/10/17 02:47:42;;;;;;;34.93;14.77;;;;;;;7.92;70.25;99364.77;2182698;82;21336;-81
2021/10/17 02:50:43;;;;;;;30.10;14.57;;;;;;;7.88;70.43;99362.92;2182637;82;20906;-80
2021/10/17 02:53:43;;;;;;;30.37;14.07;;;;;;;7.85;70.68;99364.12;2182940;82;20979;-79
2021/10/17 02:56:44;;;;;;;24.20;13.63;;;;;;;7.83;70.79;99361.48;2182686;82;20973;-80
2021/10/17 02:59:46;;;;;;;26.10;14.33;;;;;;;7.84;70.93;99366.26;2182771;82;20963;-80
2021/10/17 03:02:47;;;;;;;25.70;15.07;;;;;;;7.82;70.99;99371.41;2182567;82;20921;-81
2021/10/17 03:05:48;;;;;;;30.73;15.07;;;;;;;7.83;70.95;99370.99;2101780;85;20977;-80
2021/10/17 03:08:48;;;;;;;26.97;14.37;;;;;;;7.82;71.05;99371.83;2131632;84;20925;-80
2021/10/17 03:11:49;;;;;;;32.97;14.67;;;;;;;7.79;71.12;99370.40;2101615;85;20946;-80
2021/10/17 03:14:49;;;;;;;33.10;16.43;;;;;;;7.78;71.39;99367.33;2131646;84;20937;-81
2021/10/17 03:17:50;;;;;;;34.20;14.50;;;;;;;7.76;71.35;99362.50;2101872;85;21308;-81
2021/10/17 03:20:52;;;;;;;28.23;14.90;;;;;;;7.78;71.37;99369.94;2131409;84;20938;-80
2021/10/17 03:23:53;;;;;;;31.27;15.67;;;;;;;7.80;71.65;99370.48;2101129;85;21344;-80
2021/10/17 03:26:53;;;;;;;35.23;19.00;;;;;;;7.82;71.55;99366.63;2130701;84;20969;-81
2021/10/17 03:29:54;;;;;;;36.40;18.83;;;;;;;7.82;71.08;99361.43;2101237;85;20984;-80
2021/10/17 03:32:54;;;;;;;36.27;19.50;;;;;;;7.85;71.08;99366.30;2130752;84;20977;-80
2021/10/17 03:35:55;;;;;;;46.17;20.63;;;;;;;7.89;71.01;99364.68;2100906;85;20971;-80
2021/10/17 03:38:55;;;;;;;38.30;19.10;;;;;;;7.90;70.83;99363.84;2131268;84;20942;-81
2021/10/17 03:41:56;;;;;;;44.50;20.20;;;;;;;7.93;71.02;99363.52;2101334;85;20938;-80
2021/10/17 03:44:57;;;;;;;44.80;22.87;;;;;;;7.95;70.80;99365.75;2131187;84;20925;-81
2021/10/17 03:47:57;;;;;;;42.10;21.80;;;;;;;7.99;70.71;99362.83;2101282;85;20973;-81
2021/10/17 03:50:58;;;;;;;48.93;22.40;;;;;;;8.00;70.63;99365.89;2132106;84;21021;-81
2021/10/17 03:53:58;;;;;;;45.33;22.10;;;;;;;9.23;78.29;99366.80;2103051;85;20961;-81
2021/10/17 03:56:59;;;;;;;72.90;43.67;;;;;;;12.82;75.07;99356.11;2132536;84;20945;-82
2021/10/17 04:00:00;;;;;;;391.73;288.87;;;;;;;15.18;66.91;99344.59;2102561;85;20944;-81
2021/10/17 04:03:00;;;;;;;71.80;41.00;;;;;;;16.54;61.03;99343.16;2131363;84;20942;-82
2021/10/17 04:06:01;;;;;;;60.45;35.40;;;;;;;17.61;55.53;99334.17;2102363;85;21427;-81
2021/10/17 04:09:01;;;;;;;49.95;28.55;;;;;;;18.65;51.71;99329.18;2132111;84;20912;-82
2021/10/17 04:12:02;;;;;;;46.63;24.92;;;;;;;19.23;49.05;99333.67;2102428;85;20929;-81
2021/10/17 04:15:02;;;;;;;41.00;23.65;;;;;;;19.71;46.80;99334.23;2132348;84;20917;-81
2021/10/17 04:18:04;;;;;;;43.58;24.02;;;;;;;20.01;45.11;99329.32;2101941;85;21289;-81
2021/10/17 04:21:04;;;;;;;41.75;23.83;;;;;;;20.24;44.45;99331.08;2132155;84;20957;-81
2021/10/17 04:24:06;;;;;;;44.53;24.43;;;;;;;20.53;42.62;99331.85;2102706;85;20918;-81
2021/10/17 04:27:08;;;;;;;315.70;230.62;;;;;;;20.52;41.45;99337.19;2132253;84;21017;-81
2021/10/17 04:30:09;;;;;;;293.35;247.45;;;;;;;20.70;41.02;99335.48;2101856;85;21352;-81
2021/10/17 04:33:09;;;;;;;119.70;91.02;;;;;;;20.85;40.17;99331.20;2120884;84;20986;-80
2021/10/17 04:36:10;;;;;;;58.23;37.15;;;;;;;20.83;39.69;99328.16;2106963;85;21022;-81
2021/10/17 04:39:10;;;;;;;43.17;25.88;;;;;;;21.06;39.28;99328.97;2106765;85;20945;-81
2021/10/17 04:42:11;;;;;;;41.58;25.02;;;;;;;21.29;38.50;99330.67;2106374;85;20931;-79
2021/10/17 04:45:11;;;;;;;47.45;27.58;;;;;;;18.48;39.75;99337.29;2106244;85;20966;-79
2021/10/17 04:48:12;;;;;;;48.13;26.57;;;;;;;18.48;39.75;99337.29;2106193;85;20962;-79
2021/10/17 04:51:12;;;;;;;47.83;26.37;;;;;;;16.32;42.25;99347.61;2105772;85;21345;-78
2021/10/17 04:54:13;;;;;;;45.50;25.92;;;;;;;14.70;44.96;99347.08;2106048;85;20939;-78
2021/10/17 04:57:13;;;;;;;51.70;26.65;;;;;;;13.59;47.29;99349.47;2105814;85;20994;-78
2021/10/17 05:00:14;;;;;;;48.28;26.45;;;;;;;12.78;49.25;99357.36;2105510;85;20991;-78
2021/10/17 05:03:14;;;;;;;50.67;25.72;;;;;;;12.14;50.94;99360.07;2105217;85;20939;-78
2021/10/17 05:06:15;;;;;;;51.45;26.95;;;;;;;11.62;52.48;99358.36;2105061;85;21000;-79
2021/10/17 05:09:15;;;;;;;52.53;26.60;;;;;;;11.14;53.64;99358.84;2105028;85;21547;-79
2021/10/17 05:12:16;;;;;;;45.20;25.72;;;;;;;10.80;54.85;99357.34;2105461;85;20998;-78
2021/10/17 05:15:16;;;;;;;49.00;27.15;;;;;;;10.48;56.16;99359.75;2105659;85;20959;-78
2021/10/17 05:18:17;;;;;;;52.95;26.40;;;;;;;10.21;56.92;99353.08;2105882;85;20947;-78
2021/10/17 05:21:17;;;;;;;51.65;27.05;;;;;;;10.05;57.73;99366.60;2105941;85;20979;-79
2021/10/17 05:24:18;;;;;;;53.55;27.90;;;;;;;9.88;58.38;99361.44;2106034;85;20947;-79
2021/10/17 05:27:18;;;;;;;53.83;28.15;;;;;;;9.67;58.96;99364.42;2106118;85;21342;-79
2021/10/17 05:30:19;;;;;;;50.65;27.42;;;;;;;9.48;59.64;99367.41;2106084;85;20991;-79
2021/10/17 05:33:19;;;;;;;53.52;26.93;;;;;;;9.38;60.33;99368.91;2106021;84;20994;-79
2021/10/17 05:36:20;;;;;;;50.03;26.45;;;;;;;9.28;60.92;99373.42;2105815;85;20978;-78
2021/10/17 05:39:20;;;;;;;49.77;27.48;;;;;;;9.22;61.41;99378.05;2106438;85;20931;-79
2021/10/17 05:42:21;;;;;;;54.93;28.30;;;;;;;9.14;61.53;99380.88;2106018;85;21362;-79
2021/10/17 05:45:21;;;;;;;54.03;26.97;;;;;;;9.09;61.94;99383.79;2106014;85;20970;-79
2021/10/17 05:48:22;;;;;;;43.23;26.27;;;;;;;9.02;62.26;99386.20;2106072;85;20974;-80
2021/10/17 05:51:22;;;;;;;54.57;27.43;;;;;;;8.98;62.66;99390.86;2105900;85;21109;-79
2021/10/17 05:54:23;;;;;;;51.13;28.07;;;;;;;8.91;62.90;99393.72;2105960;85;21002;-80
2021/10/17 05:57:23;;;;;;;56.67;28.27;;;;;;;8.88;63.37;99390.61;2105601;84;20982;-78
2021/10/17 06:00:24;;;;;;;57.17;28.20;;;;;;;8.88;63.46;99388.42;2106484;85;20943;-80
2021/10/17 06:03:24;;;;;;;51.87;28.03;;;;;;;8.86;63.65;99392.71;2105811;85;21002;-79
2021/10/17 06:06:26;;;;;;;54.33;28.17;;;;;;;8.84;64.00;99395.27;2105354;85;21002;-79
2021/10/17 06:09:27;;;;;;;54.40;28.77;;;;;;;8.80;64.19;99389.94;2106040;85;20954;-78
2021/10/17 06:12:28;;;;;;;52.03;26.50;;;;;;;8.81;64.57;99395.19;2106101;85;21306;-79
2021/10/17 06:15:28;;;;;;;50.63;27.20;;;;;;;8.81;64.49;99396.49;2106166;85;20967;-78
2021/10/17 06:18:31;;;;;;;52.43;26.40;;;;;;;8.85;64.59;99393.55;2105965;85;20946;-79
2021/10/17 06:21:31;;;;;;;49.17;26.63;;;;;;;8.83;64.60;99400.02;2136283;83;20981;-79
2021/10/17 06:24:32;;;;;;;50.50;27.40;;;;;;;8.80;64.92;99402.95;2136428;83;21348;-79
2021/10/17 06:27:32;;;;;;;49.73;27.40;;;;;;;8.73;65.07;99400.60;2136242;83;21340;-79
2021/10/17 06:30:33;;;;;;;53.90;27.80;;;;;;;8.76;65.26;99400.69;2136349;83;20982;-80
2021/10/17 06:33:33;;;;;;;55.87;26.97;;;;;;;8.79;65.24;99398.17;2142015;82;21022;-78
2021/10/17 06:36:35;;;;;;;49.67;27.13;;;;;;;8.80;65.33;99402.54;2151632;83;20958;-78
2021/10/17 06:39:35;;;;;;;50.50;27.10;;;;;;;8.82;65.47;99398.25;2059639;86;21014;-80
2021/10/17 06:42:36;;;;;;;49.93;26.77;;;;;;;8.84;65.73;99401.78;2152790;82;20922;-80
2021/10/17 06:45:37;;;;;;;52.80;27.00;;;;;;;8.88;65.81;99404.05;2152291;83;21306;-78
2021/10/17 06:48:37;;;;;;;50.33;27.87;;;;;;;8.92;66.00;99408.50;2152196;83;20926;-79
2021/10/17 06:51:37;;;;;;;54.37;27.50;;;;;;;8.92;65.87;99405.48;2151980;83;20934;-78
2021/10/17 06:54:38;;;;;;;58.03;28.73;;;;;;;8.94;65.93;99401.19;2152116;83;20966;-78
2021/10/17 06:57:38;;;;;;;58.70;29.10;;;;;;;8.99;65.74;99405.64;2152040;83;20990;-78
2021/10/17 07:00:39;;;;;;;57.70;29.70;;;;;;;9.03;65.71;99407.48;2152148;83;21298;-78
2021/10/17 07:03:39;;;;;;;62.73;36.13;;;;;;;9.05;65.68;99409.29;2152189;83;21306;-79
2021/10/17 07:06:40;;;;;;;75.60;40.43;;;;;;;9.10;65.64;99408.11;2152118;83;20993;-78
2021/10/17 07:09:40;;;;;;;81.57;43.77;;;;;;;9.11;65.74;99413.78;2152109;83;20966;-80
2021/10/17 07:12:41;;;;;;;77.13;41.27;;;;;;;9.16;65.74;99422.59;2152171;83;20914;-78
2021/10/17 07:15:42;;;;;;;62.67;33.23;;;;;;;9.16;65.82;99419.57;2152152;83;20923;-78
2021/10/17 07:18:42;;;;;;;75.23;40.70;;;;;;;9.21;65.58;99417.09;2152106;83;21298;-78
2021/10/17 07:21:43;;;;;;;69.13;37.90;;;;;;;9.23;65.66;99417.59;2152172;83;20935;-79
2021/10/17 07:24:43;;;;;;;54.93;29.90;;;;;;;9.32;65.71;99423.45;2152085;83;20938;-78
2021/10/17 07:27:44;;;;;;;57.30;30.50;;;;;;;9.38;65.55;99426.64;2152011;83;20957;-78
2021/10/17 07:30:44;;;;;;;53.47;30.37;;;;;;;9.44;65.45;99426.38;2152066;83;20919;-78
2021/10/17 07:33:45;;;;;;;53.97;28.63;;;;;;;9.48;65.13;99430.83;2162535;82;21308;-78
2021/10/17 07:36:45;;;;;;;51.63;28.30;;;;;;;9.50;65.24;99429.14;2181238;82;20988;-79
2021/10/17 07:39:46;;;;;;;50.87;27.23;;;;;;;9.47;64.99;99427.76;2181614;82;20973;-78
2021/10/17 07:42:46;;;;;;;49.47;28.33;;;;;;;9.49;65.11;99431.28;2181505;82;20960;-78
2021/10/17 07:45:47;;;;;;;51.50;26.77;;;;;;;9.61;64.87;99427.25;2181475;82;20924;-77
2021/10/17 07:48:47;;;;;;;50.20;26.65;;;;;;;9.66;64.43;99422.61;2181414;82;21317;-79
2021/10/17 07:51:48;;;;;;;50.30;25.30;;;;;;;9.79;64.38;99417.28;2181476;82;20948;-78
2021/10/17 07:54:48;;;;;;;50.25;25.77;;;;;;;9.89;64.14;99424.05;2181466;82;20910;-78
2021/10/17 07:57:49;;;;;;;48.00;25.27;;;;;;;9.95;63.70;99423.31;2181525;82;20972;-79
2021/10/17 08:00:49;;;;;;;43.68;25.80;;;;;;;10.05;63.67;99425.71;2181629;82;20948;-78
2021/10/17 08:03:50;;;;;;;46.50;25.13;;;;;;;10.18;63.50;99427.33;2181588;82;20937;-78
2021/10/17 08:06:50;;;;;;;53.70;27.43;;;;;;;10.26;63.17;99420.13;2181104;82;20996;-77
2021/10/17 08:09:51;;;;;;;48.73;25.67;;;;;;;10.33;62.75;99428.13;2181662;82;20901;-77
2021/10/17 08:12:51;;;;;;;45.30;25.17;;;;;;;10.37;62.73;99424.73;2181496;82;21324;-78
2021/10/17 08:15:52;;;;;;;45.90;22.87;;;;;;;10.42;62.59;99424.87;2181644;82;20985;-78
2021/10/17 08:18:53;;;;;;;44.23;24.27;;;;;;;10.47;62.28;99433.67;2181680;82;20944;-78
2021/10/17 08:21:53;;;;;;;39.60;22.60;;;;;;;10.49;62.34;99431.98;2181646;82;20953;-77
2021/10/17 08:24:54;;;;;;;42.40;23.77;;;;;;;10.47;62.42;99436.29;2181557;82;20913;-78
2021/10/17 08:27:54;;;;;;;39.87;22.57;;;;;;;10.49;62.38;99434.17;2181029;82;20968;-78
2021/10/17 08:30:55;;;;;;;43.80;20.23;;;;;;;10.51;62.32;99439.42;2180778;82;21324;-79
2021/10/17 08:33:55;;;;;;;40.37;21.30;;;;;;;10.53;61.96;99439.91;2180893;82;20984;-79
2021/10/17 08:36:56;;;;;;;43.57;21.07;;;;;;;10.45;61.94;99440.17;2180522;82;21001;-78
2021/10/17 08:39:56;;;;;;;39.30;21.13;;;;;;;10.49;62.04;99435.48;2180749;82;20973;-78
2021/10/17 08:42:57;;;;;;;39.83;21.43;;;;;;;10.54;62.07;99440.80;2181223;82;20980;-78
2021/10/17 08:45:57;;;;;;;37.57;18.87;;;;;;;10.55;62.02;99433.84;2181224;82;20971;-78
2021/10/17 08:48:58;;;;;;;38.20;19.20;;;;;;;10.62;61.85;99434.00;2181570;82;20941;-79
2021/10/17 08:51:58;;;;;;;33.87;18.60;;;;;;;10.67;61.22;99434.09;2181530;82;20933;-78
2021/10/17 08:54:58;;;;;;;31.90;18.17;;;;;;;10.68;61.07;99433.25;2181636;82;20941;-79
2021/10/17 09:01:01;;;;;;;34.83;17.07;;;;;;;10.73;60.66;99428.58;2080631;85;20938;-79
2021/10/17 09:04:03;;;;;;;34.40;17.27;;;;;;;10.78;60.75;99428.25;2131038;84;20973;-79
2021/10/17 09:07:03;;;;;;;36.47;20.27;;;;;;;10.75;60.40;99434.72;2100680;85;21420;-78
2021/10/17 09:10:05;;;;;;;33.67;18.13;;;;;;;10.83;60.84;99434.87;2130590;84;20956;-78
2021/10/17 09:13:05;;;;;;;36.70;17.87;;;;;;;10.91;60.33;99437.63;2101010;85;20992;-77
2021/10/17 09:16:06;;;;;;;29.73;17.63;;;;;;;10.99;60.20;99439.55;2130589;84;20954;-77
2021/10/17 09:19:06;;;;;;;35.53;19.20;;;;;;;11.08;59.83;99442.76;2101011;85;21507;-78
2021/10/17 09:22:07;;;;;;;32.30;17.37;;;;;;;11.13;59.72;99448.53;2130591;84;20918;-78
2021/10/17 09:25:07;;;;;;;32.57;17.37;;;;;;;11.16;59.29;99444.66;2101001;85;21127;-78
2021/10/17 09:28:08;;;;;;;35.77;16.77;;;;;;;11.13;59.66;99450.26;2130580;84;20997;-78
2021/10/17 09:31:08;;;;;;;30.67;17.47;;;;;;;11.17;59.35;99445.55;2100993;85;20945;-79
2021/10/17 09:34:09;;;;;;;30.93;17.57;;;;;;;11.18;59.22;99440.77;2130471;84;20985;-79
2021/10/17 09:37:09;;;;;;;32.77;17.00;;;;;;;11.28;59.52;99444.05;2100624;85;21385;-78
2021/10/17 09:40:17;;;;;;;27.60;16.48;;;;;;;11.44;57.98;99439.98;2130764;84;20972;-78
2021/10/17 09:43:13;;;;;;;33.00;17.07;;;;;;;11.41;58.42;99439.92;2100086;85;20989;-79
2021/10/17 09:46:14;;;;;;;31.47;15.67;;;;;;;11.47;58.32;99439.61;2130599;84;21016;-78
2021/10/17 09:49:14;;;;;;;24.63;14.23;;;;;;;11.61;58.08;99438.97;2100947;85;20926;-79
2021/10/17 09:52:15;;;;;;;29.48;16.50;;;;;;;11.65;57.68;99435.55;2130320;84;21341;-78
2021/10/17 09:55:16;;;;;;;25.43;14.75;;;;;;;11.70;57.18;99432.16;2101157;85;20949;-78
2021/10/17 09:58:16;;;;;;;26.57;14.63;;;;;;;11.77;57.07;99428.81;2130747;84;20914;-78
2021/10/17 10:01:17;;;;;;;27.37;14.40;;;;;;;11.93;57.34;99431.25;2101061;85;20957;-78
2021/10/17 10:04:17;;;;;;;26.27;13.08;;;;;;;12.06;56.63;99427.96;2130672;84;20986;-80
2021/10/17 10:07:18;;;;;;;32.03;14.35;;;;;;;12.16;55.46;99425.09;2100879;85;21013;-78
2021/10/17 10:10:18;;;;;;;25.00;14.20;;;;;;;12.20;55.35;99429.94;2130699;84;20965;-78
2021/10/17 10:13:19;;;;;;;26.02;14.87;;;;;;;12.18;55.16;99432.96;2101040;85;20949;-77
2021/10/17 10:16:20;;;;;;;32.23;15.80;;;;;;;12.19;55.12;99430.80;2130597;84;21359;-79
2021/10/17 10:19:20;;;;;;;28.35;16.77;;;;;;;12.13;54.01;99433.73;2100994;85;21336;-78
2021/10/17 10:22:21;;;;;;;25.12;14.90;;;;;;;12.00;54.27;99434.84;2130274;84;20997;-78
2021/10/17 10:25:21;;;;;;;26.33;13.60;;;;;;;12.08;54.74;99427.98;2100883;85;20981;-78
2021/10/17 10:28:25;;;;;;;29.37;14.68;;;;;;;12.16;54.16;99430.75;2130855;84;21001;-77
2021/10/17 10:31:24;;;;;;;26.17;14.95;;;;;;;12.17;53.69;99425.97;2100661;85;21380;-78
2021/10/17 10:34:25;;;;;;;26.12;13.13;;;;;;;12.20;54.17;99424.70;2122399;84;20990;-77
2021/10/17 10:37:25;;;;;;;23.18;11.40;;;;;;;12.34;54.09;99423.16;2105523;85;20986;-78
2021/10/17 10:40:26;;;;;;;23.07;12.23;;;;;;;12.40;52.38;99420.20;2105958;85;21295;-78
2021/10/17 10:43:26;;;;;;;19.40;11.90;;;;;;;12.37;53.18;99414.92;2106022;85;20935;-78
2021/10/17 10:46:27;;;;;;;18.65;10.18;;;;;;;12.39;52.74;99414.94;2106263;85;20962;-78
2021/10/17 10:49:27;;;;;;;25.23;13.08;;;;;;;12.37;51.91;99421.89;2059146;87;20957;-77
2021/10/17 10:52:28;;;;;;;21.33;11.65;;;;;;;12.29;52.39;99415.67;2059219;87;20960;-78
2021/10/17 10:55:28;;;;;;;21.75;9.88;;;;;;;12.24;52.80;99418.22;2059248;87;21325;-77
2021/10/17 10:58:32;;;;;;;19.00;10.10;;;;;;;12.27;52.80;99417.39;2136168;83;20962;-78
2021/10/17 11:01:31;;;;;;;22.67;10.80;;;;;;;12.31;51.13;99417.88;2136227;83;20997;-78
2021/10/17 11:04:32;;;;;;;15.83;10.18;;;;;;;12.30;51.53;99414.81;2136162;83;21345;-77
2021/10/17 11:07:32;;;;;;;21.60;10.03;;;;;;;12.28;51.42;99409.98;2136207;83;20996;-83
2021/10/17 11:10:33;;;;;;;20.05;12.03;;;;;;;12.32;58.62;99402.62;2136433;83;20953;-78
2021/10/17 11:13:33;;;;;;;15.60;9.70;;;;;;;12.62;51.87;99403.02;2136442;83;20937;-79
2021/10/17 11:16:34;;;;;;;12.58;8.98;;;;;;;12.61;50.47;99401.27;2136448;83;20977;-79
2021/10/17 11:19:34;;;;;;;14.95;9.15;;;;;;;12.64;50.28;99398.69;2136158;83;20930;-80
2021/10/17 11:22:35;;;;;;;17.87;9.05;;;;;;;12.61;48.50;99403.88;2136598;83;20965;-80
2021/10/17 11:25:35;;;;;;;16.97;8.75;;;;;;;12.49;49.68;99399.80;2136610;83;20914;-80
2021/10/17 11:28:37;;;;;;;14.50;8.55;;;;;;;12.49;49.86;99391.95;2136524;83;20972;-79
2021/10/17 11:31:37;;;;;;;14.35;9.23;;;;;;;12.48;49.94;99390.62;2136991;83;20953;-80
2021/10/17 11:34:38;;;;;;;16.07;9.33;;;;;;;12.44;50.42;99394.94;2141124;82;21373;-78
2021/10/17 11:37:38;;;;;;;22.85;11.18;;;;;;;12.51;50.01;99382.38;2151969;83;21325;-80
2021/10/17 11:40:39;;;;;;;41.33;13.72;;;;;;;12.55;49.87;99381.55;2152266;83;21370;-79
2021/10/17 11:43:39;;;;;;;15.03;9.15;;;;;;;12.51;50.25;99377.13;2152718;83;20938;-79
2021/10/17 11:46:40;;;;;;;15.45;8.05;;;;;;;12.60;49.88;99381.17;2059680;87;21021;-78
2021/10/17 11:49:40;;;;;;;16.85;9.20;;;;;;;12.55;46.53;99375.00;2152294;82;20918;-80
2021/10/17 11:52:41;;;;;;;13.85;7.87;;;;;;;12.49;48.95;99371.00;2152483;83;20934;-80
2021/10/17 11:55:41;;;;;;;14.83;8.48;;;;;;;12.50;48.44;99376.69;2152491;83;21297;-80
2021/10/17 11:58:42;;;;;;;17.52;8.25;;;;;;;12.38;48.47;99366.05;2152288;83;20942;-80
2021/10/17 12:01:42;;;;;;;17.73;7.87;;;;;;;12.33;47.80;99370.36;2152441;83;20926;-80
2021/10/17 12:04:43;;;;;;;16.30;7.65;;;;;;;12.33;48.46;99371.23;2152289;83;20949;-79
2021/10/17 12:07:43;;;;;;;14.03;7.75;;;;;;;12.33;48.40;99371.66;2152104;83;21025;-79
2021/10/17 12:10:44;;;;;;;12.53;7.03;;;;;;;12.31;47.69;99366.41;2152157;83;20911;-79
2021/10/17 12:13:45;;;;;;;14.38;6.90;;;;;;;12.33;47.71;99363.81;2152213;83;21297;-80
2021/10/17 12:16:45;;;;;;;10.80;6.87;;;;;;;12.34;47.68;99360.33;2152377;83;20933;-79
2021/10/17 12:19:46;;;;;;;11.73;7.17;;;;;;;12.37;47.91;99369.11;2152350;83;20938;-80
2021/10/17 12:22:46;;;;;;;12.43;6.90;;;;;;;12.51;45.96;99361.85;2152214;83;21025;-79
2021/10/17 12:25:47;;;;;;;14.05;6.47;;;;;;;12.51;45.96;99361.85;2152356;83;20946;-79
2021/10/17 12:28:47;;;;;;;12.53;6.80;;;;;;;12.41;45.65;99361.73;2151966;83;20954;-78
2021/10/17 12:31:48;;;;;;;16.90;8.23;;;;;;;12.29;45.57;99352.84;2152001;83;20977;-79
2021/10/17 12:34:49;;;;;;;15.60;6.42;;;;;;;12.29;47.19;99360.27;2160340;82;21304;-80
2021/10/17 12:37:49;;;;;;;14.50;6.90;;;;;;;12.29;46.40;99352.84;2100943;85;21045;-79
2021/10/17 12:40:53;;;;;;;10.18;6.58;;;;;;;12.17;46.28;99353.56;2130704;84;20937;-80
2021/10/17 12:43:54;;;;;;;15.18;7.58;;;;;;;12.10;46.34;99349.95;2100674;85;20921;-78
2021/10/17 12:46:54;;;;;;;20.05;10.15;;;;;;;12.08;47.20;99346.44;2130197;84;21345;-79
2021/10/17 12:49:54;;;;;;;25.55;13.68;;;;;;;12.09;48.34;99343.39;2100805;85;20965;-80
2021/10/17 12:52:55;;;;;;;27.67;13.72;;;;;;;12.16;49.53;99341.34;2130370;84;20958;-79
2021/10/17 12:55:55;;;;;;;23.80;12.23;;;;;;;12.25;50.12;99339.27;2100747;85;20992;-80
2021/10/17 12:58:56;;;;;;;23.98;12.63;;;;;;;12.29;49.54;99338.02;2130875;84;20922;-80
2021/10/17 13:01:56;;;;;;;21.12;12.18;;;;;;;12.28;49.69;99334.95;2100967;85;20977;-79
2021/10/17 13:04:57;;;;;;;23.87;13.00;;;;;;;12.27;49.76;99333.62;2131049;84;21289;-79
2021/10/17 13:07:57;;;;;;;29.10;14.98;;;;;;;12.28;49.99;99332.34;2101223;85;21048;-79
2021/10/17 13:10:58;;;;;;;25.97;14.23;;;;;;;12.23;49.97;99339.68;2130986;84;20981;-80
2021/10/17 13:13:58;;;;;;;28.98;14.80;;;;;;;12.16;50.75;99328.26;2101296;85;20898;-81
2021/10/17 13:16:59;;;;;;;29.92;16.48;;;;;;;12.16;50.68;99329.56;2130827;84;20914;-79
2021/10/17 13:19:59;;;;;;;26.80;15.43;;;;;;;12.08;51.00;99324.20;2101181;85;21321;-79
2021/10/17 13:23:00;;;;;;;25.75;13.40;;;;;;;12.10;51.13;99330.33;2131056;84;21297;-80
2021/10/17 13:26:04;;;;;;;27.13;13.90;;;;;;;12.08;50.65;99320.70;2101247;85;20981;-79
2021/10/17 13:29:03;;;;;;;29.80;13.13;;;;;;;12.06;50.54;99319.38;2130697;83;21002;-80
2021/10/17 13:32:03;;;;;;;23.15;12.63;;;;;;;12.05;50.54;99315.42;2101218;85;21316;-80
2021/10/17 13:35:04;;;;;;;26.52;14.07;;;;;;;12.06;50.38;99314.14;2128396;84;21357;-80
2021/10/17 13:38:04;;;;;;;28.98;14.87;;;;;;;12.05;50.84;99321.53;2122408;84;21017;-77
2021/10/17 13:41:06;;;;;;;27.98;15.55;;;;;;;12.02;51.12;99316.27;2122203;84;21029;-80
2021/10/17 13:44:07;;;;;;;33.00;15.53;;;;;;;12.01;51.40;99315.81;2122340;84;21382;-79
2021/10/17 13:47:07;;;;;;;29.70;16.07;;;;;;;12.00;51.42;99317.98;2122388;84;20966;-79
2021/10/17 13:50:07;;;;;;;30.27;16.80;;;;;;;11.95;51.69;99317.04;2122558;84;20945;-79
2021/10/17 13:53:08;;;;;;;33.98;17.48;;;;;;;11.88;51.83;99320.42;2122480;84;21318;-80
2021/10/17 13:56:11;;;;;;;34.30;19.40;;;;;;;11.80;52.16;99322.05;2122327;84;20958;-80
2021/10/17 13:59:12;;;;;;;39.03;18.07;;;;;;;11.70;52.15;99321.44;2175764;82;20933;-80